Hmcs Charlottetown — CGAJ — position and weather

sailwx.info

Track history (hours):
 
Tides and Currents Weather Stations Pressure Air Temp Water Temp Dewpoint Dewpoint Depression Visibility Wind Speed Wind Dir Waves Ship Positions

Hmcs Charlottetown

Last reported at 2017-Jan-06 15:25 UTC. Time now 2017-Feb-26 14:44 UTC.
Position N 38°34' W 030°12'.
Warning: this ship's position is 50 days out of date.

; draft 7.5 m.

Type: Military. MMSI: 235830006.

Date/timePositionNaut miles runAvg speedWind from/ knotsBaromVisibWave heightAir tempDewpointWater temp
2017-Jan-06 15:25N 38°34' W 030°12'1112.7
2017-Jan-06 14:33N 38°31' W 029°59'1010.0
2017-Jan-06 13:34N 38°27' W 029°47'1010.2
2017-Jan-06 12:33N 38°24' W 029°35'1010.1
2017-Jan-06 11:34N 38°21' W 029°23'10 9.9
2017-Jan-06 10:33N 38°18' W 029°11'10 9.7
2017-Jan-06 09:33N 38°15' W 028°59'1010.0
2017-Jan-06 08:33N 38°12' W 028°47'10 9.8
2017-Jan-06 07:33N 38°09' W 028°35'10 9.8
2017-Jan-06 06:33N 38°05' W 028°23'1010.3
2017-Jan-06 05:33N 38°02' W 028°11'1010.4
2017-Jan-06 04:33N 37°60' W 027°58'1010.4
2017-Jan-06 03:33N 37°58' W 027°45'1010.4
2017-Jan-06 02:33N 37°56' W 027°32'1010.2
2017-Jan-06 01:33N 37°55' W 027°19'1410.2
2017-Jan-06 00:10N 37°53' W 027°01'710.5
2017-Jan-05 23:29N 37°52' W 026°52'1010.4
2017-Jan-05 22:33N 37°50' W 026°40'1010.4
2017-Jan-05 21:34N 37°48' W 026°27'1010.4
2017-Jan-05 20:33N 37°47' W 026°14'1010.3
2017-Jan-05 19:33N 37°45' W 026°01'1010.5
2017-Jan-05 18:33N 37°44' W 025°48'7 6.8
2017-Jan-05 17:33N 37°44' W 025°40'0 0.1
2017-Jan-05 16:33N 37°44' W 025°40'0 0.0
2017-Jan-05 15:34N 37°44' W 025°40'0 0.0
2017-Jan-05 14:33N 37°44' W 025°40'0 0.0
2017-Jan-05 13:34N 37°44' W 025°40'0 0.0
2017-Jan-05 12:34N 37°44' W 025°40'0 0.0
2017-Jan-05 11:34N 37°44' W 025°40'0 0.0
2017-Jan-05 10:34N 37°44' W 025°40'2 1.6
2017-Jan-05 09:34N 37°43' W 025°38'6 6.1
2017-Jan-05 08:34N 37°39' W 025°32'9 9.1
2017-Jan-05 07:34N 37°37' W 025°21'9 9.1
2017-Jan-05 06:33N 37°37' W 025°09'8 8.3
2017-Jan-05 05:33N 37°38' W 024°59'10 9.6
2017-Jan-05 04:33N 37°40' W 024°47'10 9.5
2017-Jan-05 03:34N 37°41' W 024°35'10 9.5
2017-Jan-05 02:33N 37°42' W 024°23'1010.0
2017-Jan-05 01:34N 37°44' W 024°11'10 9.8
2017-Jan-05 00:33N 37°45' W 023°58'9 9.3
2017-Jan-04 23:33N 37°46' W 023°47'  
2017-Jan-02 14:12N 38°29' W 009°59'711.6
2017-Jan-02 13:33N 38°31' W 009°49'1211.8
2017-Jan-02 12:33N 38°34' W 009°35'1211.7
2017-Jan-02 11:33N 38°38' W 009°21'10 9.6
2017-Jan-02 10:33N 38°42' W 009°10'0 0.1
2017-Jan-02 09:32N 38°42' W 009°10'0 0.0
2017-Jan-02 08:32N 38°42' W 009°10'  
Track history (hours):
 
Tides and Currents Weather Stations Pressure Air Temp Water Temp Dewpoint Dewpoint Depression Visibility Wind Speed Wind Dir Waves Ship Positions

Hmcs Charlottetown

Last reported at 2017-Jan-06 15:25 UTC. Time now 2017-Feb-26 14:44 UTC.
Position N 38°34' W 030°12'.
Warning: this ship's position is 50 days out of date.

; draft 7.5 m.

Type: Military. MMSI: 235830006.

Date/timePositionNaut miles runAvg speedWind from/ knotsBaromVisibWave heightAir tempDewpointWater temp
2017-Jan-06 15:25N 38°34' W 030°12'1112.7
2017-Jan-06 14:33N 38°31' W 029°59'1010.0
2017-Jan-06 13:34N 38°27' W 029°47'1010.2
2017-Jan-06 12:33N 38°24' W 029°35'1010.1
2017-Jan-06 11:34N 38°21' W 029°23'10 9.9
2017-Jan-06 10:33N 38°18' W 029°11'10 9.7
2017-Jan-06 09:33N 38°15' W 028°59'1010.0
2017-Jan-06 08:33N 38°12' W 028°47'10 9.8
2017-Jan-06 07:33N 38°09' W 028°35'10 9.8
2017-Jan-06 06:33N 38°05' W 028°23'1010.3
2017-Jan-06 05:33N 38°02' W 028°11'1010.4
2017-Jan-06 04:33N 37°60' W 027°58'1010.4
2017-Jan-06 03:33N 37°58' W 027°45'1010.4
2017-Jan-06 02:33N 37°56' W 027°32'1010.2
2017-Jan-06 01:33N 37°55' W 027°19'1410.2
2017-Jan-06 00:10N 37°53' W 027°01'710.5
2017-Jan-05 23:29N 37°52' W 026°52'1010.4
2017-Jan-05 22:33N 37°50' W 026°40'1010.4
2017-Jan-05 21:34N 37°48' W 026°27'1010.4
2017-Jan-05 20:33N 37°47' W 026°14'1010.3
2017-Jan-05 19:33N 37°45' W 026°01'1010.5
2017-Jan-05 18:33N 37°44' W 025°48'7 6.8
2017-Jan-05 17:33N 37°44' W 025°40'0 0.1
2017-Jan-05 16:33N 37°44' W 025°40'0 0.0
2017-Jan-05 15:34N 37°44' W 025°40'0 0.0
2017-Jan-05 14:33N 37°44' W 025°40'0 0.0
2017-Jan-05 13:34N 37°44' W 025°40'0 0.0
2017-Jan-05 12:34N 37°44' W 025°40'0 0.0
2017-Jan-05 11:34N 37°44' W 025°40'0 0.0
2017-Jan-05 10:34N 37°44' W 025°40'2 1.6
2017-Jan-05 09:34N 37°43' W 025°38'6 6.1
2017-Jan-05 08:34N 37°39' W 025°32'9 9.1
2017-Jan-05 07:34N 37°37' W 025°21'9 9.1
2017-Jan-05 06:33N 37°37' W 025°09'8 8.3
2017-Jan-05 05:33N 37°38' W 024°59'10 9.6
2017-Jan-05 04:33N 37°40' W 024°47'10 9.5
2017-Jan-05 03:34N 37°41' W 024°35'10 9.5
2017-Jan-05 02:33N 37°42' W 024°23'1010.0
2017-Jan-05 01:34N 37°44' W 024°11'10 9.8
2017-Jan-05 00:33N 37°45' W 023°58'9 9.3
2017-Jan-04 23:33N 37°46' W 023°47'  
2017-Jan-02 14:12N 38°29' W 009°59'711.6
2017-Jan-02 13:33N 38°31' W 009°49'1211.8
2017-Jan-02 12:33N 38°34' W 009°35'1211.7
2017-Jan-02 11:33N 38°38' W 009°21'10 9.6
2017-Jan-02 10:33N 38°42' W 009°10'0 0.1
2017-Jan-02 09:32N 38°42' W 009°10'0 0.0
2017-Jan-02 08:32N 38°42' W 009°10'  

Dump ship's entire track history